Time,TemperatureF,DewpointF,PressureIn,WindDirection,WindDirectionDegrees,WindSpeedMPH,WindSpeedGustMPH,Humidity,HourlyPrecipIn,Conditions,Clouds,dailyrainin,SoftwareType,DateUTC
2013-03-07 09:57:00,53.8,44.4,-100.00,East,100,2.2,3.6,70,0.00,,,0.00,WSDL version 420,2013-03-07 17:57:00,
2013-03-07 10:02:00,54.3,44.2,29.74,NE,39,1.5,3.6,69,0.00,,,0.00,WSDL version 420,2013-03-07 18:02:00,
2013-03-07 10:07:00,54.6,44.0,29.74,South,175,0.8,4.0,67,0.00,,,0.00,WSDL version 420,2013-03-07 18:07:00,
2013-03-07 10:12:00,55.1,43.9,29.74,NE,45,2.5,4.0,62,0.00,,,0.00,WSDL version 420,2013-03-07 18:12:00,
2013-03-07 10:17:00,55.6,43.4,29.74,NE,45,1.1,3.8,64,0.00,,,0.00,WSDL version 420,2013-03-07 18:17:00,
2013-03-07 10:22:00,55.0,39.5,29.74,North,6,3.7,6.3,55,0.00,,,0.00,WSDL version 420,2013-03-07 18:22:00,
2013-03-07 10:27:00,53.2,39.5,29.74,NNE,23,4.5,6.7,61,0.00,,,0.00,WSDL version 420,2013-03-07 18:27:00,
2013-03-07 10:32:00,52.5,39.8,29.74,North,355,4.3,7.6,63,0.00,,,0.00,WSDL version 420,2013-03-07 18:32:00,
2013-03-07 10:37:00,52.2,40.2,29.74,NNE,28,2.9,7.6,64,0.00,,,0.00,WSDL version 420,2013-03-07 18:37:00,
2013-03-07 10:42:00,52.2,40.5,29.74,NNW,335,1.8,6.3,63,0.00,,,0.00,WSDL version 420,2013-03-07 18:42:00,
2013-03-07 10:47:00,51.8,39.9,29.74,WNW,284,1.8,3.4,64,0.00,,,0.00,WSDL version 420,2013-03-07 18:47:00,
2013-03-07 10:52:00,51.7,39.9,29.74,West,280,2.8,5.6,63,0.00,,,0.00,WSDL version 420,2013-03-07 18:52:00,
2013-03-07 10:57:00,51.8,40.0,29.74,NNW,343,1.8,5.6,64,0.00,,,0.00,WSDL version 420,2013-03-07 18:57:00,
2013-03-07 11:02:00,52.0,40.3,29.74,NE,50,1.7,3.8,65,0.00,,,0.00,WSDL version 420,2013-03-07 19:02:00,
2013-03-07 11:07:00,52.4,40.1,29.74,ENE,73,0.1,3.1,63,0.00,,,0.00,WSDL version 420,2013-03-07 19:07:00,
2013-03-07 11:12:00,52.7,40.4,29.74,ESE,113,2.0,3.4,63,0.00,,,0.00,WSDL version 420,2013-03-07 19:12:00,
2013-03-07 11:17:00,52.7,40.1,29.74,NE,35,2.3,3.4,62,0.00,,,0.00,WSDL version 420,2013-03-07 19:17:00,
2013-03-07 11:22:00,52.9,39.9,29.74,East,82,2.3,4.9,61,0.00,,,0.00,WSDL version 420,2013-03-07 19:22:00,
2013-03-07 11:27:00,53.5,40.3,29.74,NE,45,2.7,5.6,60,0.00,,,0.00,WSDL version 420,2013-03-07 19:27:00,
2013-03-07 11:32:00,53.8,40.0,29.74,ENE,68,2.2,5.6,59,0.00,,,0.00,WSDL version 420,2013-03-07 19:32:00,
2013-03-07 11:37:00,54.0,40.1,29.74,ENE,68,1.3,4.3,58,0.00,,,0.00,WSDL version 420,2013-03-07 19:37:00,
2013-03-07 11:42:00,54.1,39.5,29.74,NE,50,1.3,2.9,57,0.00,,,0.00,WSDL version 420,2013-03-07 19:42:00,
2013-03-07 11:47:00,54.5,39.4,29.74,East,80,2.3,4.7,57,0.00,,,0.00,WSDL version 420,2013-03-07 19:47:00,
2013-03-07 11:52:00,54.9,39.6,29.74,SSE,155,2.1,4.7,56,0.00,,,0.00,WSDL version 420,2013-03-07 19:52:00,
2013-03-07 11:57:00,55.2,38.7,29.74,SSW,205,1.7,3.8,54,0.00,,,0.00,WSDL version 420,2013-03-07 19:57:00,
2013-03-07 12:02:00,55.3,38.8,29.74,SSW,200,0.5,3.8,54,0.00,,,0.00,WSDL version 420,2013-03-07 20:02:00,
2013-03-07 12:07:00,55.3,38.3,29.74,NNW,329,2.9,4.3,51,0.00,,,0.00,WSDL version 420,2013-03-07 20:07:00,
2013-03-07 12:12:00,55.0,37.1,29.74,North,360,2.5,4.3,49,0.00,,,0.00,WSDL version 420,2013-03-07 20:12:00,
2013-03-07 12:17:00,54.8,36.4,29.71,NE,53,0.2,4.3,51,0.00,,,0.00,WSDL version 420,2013-03-07 20:17:00,
2013-03-07 12:22:00,54.9,36.0,29.71,NNE,20,3.5,6.0,48,0.00,,,0.00,WSDL version 420,2013-03-07 20:22:00,
2013-03-07 12:27:00,54.6,35.8,29.71,North,360,1.7,6.0,49,0.00,,,0.00,WSDL version 420,2013-03-07 20:27:00,
2013-03-07 12:32:00,54.5,35.5,29.71,NNW,343,3.2,4.3,48,0.00,,,0.00,WSDL version 420,2013-03-07 20:32:00,
2013-03-07 12:37:00,54.1,34.3,29.71,North,350,3.3,4.7,47,0.00,,,0.00,WSDL version 420,2013-03-07 20:37:00,
2013-03-07 12:42:00,54.2,34.8,29.71,NE,48,2.5,4.7,49,0.00,,,0.00,WSDL version 420,2013-03-07 20:42:00,
2013-03-07 12:47:00,54.8,35.6,29.71,NNE,20,1.6,4.3,48,0.00,,,0.00,WSDL version 420,2013-03-07 20:47:00,
2013-03-07 12:52:00,55.1,36.1,29.71,NE,38,2.5,4.0,48,0.00,,,0.00,WSDL version 420,2013-03-07 20:52:00,
2013-03-07 12:57:00,55.6,36.2,29.71,NE,48,3.1,5.6,48,0.00,,,0.00,WSDL version 420,2013-03-07 20:57:00,
2013-03-07 13:02:00,56.0,36.5,29.71,East,98,3.7,6.5,47,0.00,,,0.00,WSDL version 420,2013-03-07 21:02:00,
2013-03-07 13:07:00,56.1,36.2,29.71,NE,48,2.5,6.5,47,0.00,,,0.00,WSDL version 420,2013-03-07 21:07:00,
2013-03-07 13:12:00,56.1,36.1,29.71,ENE,63,2.6,4.9,47,0.00,,,0.00,WSDL version 420,2013-03-07 21:12:00,
2013-03-07 13:17:00,56.3,35.9,29.71,NNE,25,2.7,4.9,45,0.00,,,0.00,WSDL version 420,2013-03-07 21:17:00,
2013-03-07 13:22:00,56.3,35.6,29.71,East,85,3.7,5.4,46,0.00,,,0.00,WSDL version 420,2013-03-07 21:22:00,
2013-03-07 13:27:00,57.0,36.5,29.71,ENE,65,2.3,5.4,46,0.00,,,0.00,WSDL version 420,2013-03-07 21:27:00,
2013-03-07 13:32:00,57.1,35.2,29.71,NE,39,3.9,5.4,43,0.00,,,0.00,WSDL version 420,2013-03-07 21:32:00,
2013-03-07 13:37:00,57.8,36.2,29.71,ENE,78,3.0,5.4,45,0.00,,,0.00,WSDL version 420,2013-03-07 21:37:00,
2013-03-07 13:42:00,58.2,36.4,29.71,NE,56,0.8,4.3,43,0.00,,,0.00,WSDL version 420,2013-03-07 21:42:00,
2013-03-07 13:47:00,57.3,34.4,29.68,North,10,3.0,4.9,42,0.00,,,0.00,WSDL version 420,2013-03-07 21:47:00,
2013-03-07 13:52:00,56.7,33.7,29.68,NE,48,1.9,4.9,42,0.00,,,0.00,WSDL version 420,2013-03-07 21:52:00,
2013-03-07 13:57:00,56.6,33.5,29.68,NNE,18,3.0,4.7,41,0.00,,,0.00,WSDL version 420,2013-03-07 21:57:00,
2013-03-07 14:02:00,56.1,32.6,29.68,NNE,30,3.2,5.4,41,0.00,,,0.00,WSDL version 420,2013-03-07 22:02:00,
2013-03-07 14:07:00,55.9,33.1,29.68,NNW,343,3.1,5.4,43,0.00,,,0.00,WSDL version 420,2013-03-07 22:07:00,
2013-03-07 14:12:00,55.3,33.3,29.68,NNW,343,2.9,5.4,44,0.00,,,0.00,WSDL version 420,2013-03-07 22:12:00,
2013-03-07 14:17:00,54.9,34.4,29.68,NW,307,3.4,5.6,46,0.00,,,0.00,WSDL version 420,2013-03-07 22:17:00,
2013-03-07 14:22:00,54.4,34.1,29.68,NNW,329,3.9,5.8,46,0.00,,,0.00,WSDL version 420,2013-03-07 22:22:00,
2013-03-07 14:27:00,54.0,33.6,29.68,North,357,3.2,5.8,46,0.00,,,0.00,WSDL version 420,2013-03-07 22:27:00,
2013-03-07 14:32:00,54.4,34.4,29.68,NNW,335,3.0,4.9,47,0.00,,,0.00,WSDL version 420,2013-03-07 22:32:00,
2013-03-07 14:37:00,54.8,34.6,29.68,North,5,4.1,6.3,47,0.00,,,0.00,WSDL version 420,2013-03-07 22:37:00,
2013-03-07 14:42:00,56.0,35.6,29.68,North,357,3.6,6.3,46,0.00,,,0.00,WSDL version 420,2013-03-07 22:42:00,
2013-03-07 14:47:00,56.6,35.5,29.68,North,5,2.5,5.6,45,0.00,,,0.00,WSDL version 420,2013-03-07 22:47:00,
2013-03-07 14:52:00,56.9,36.2,29.68,NNE,23,2.9,5.6,45,0.00,,,0.00,WSDL version 420,2013-03-07 22:52:00,
2013-03-07 14:57:00,57.4,35.7,29.68,North,6,2.7,4.7,43,0.00,,,0.00,WSDL version 420,2013-03-07 22:57:00,
2013-03-07 15:02:00,56.4,33.8,29.68,North,360,3.4,7.2,41,0.00,,,0.00,WSDL version 420,2013-03-07 23:02:00,
2013-03-07 15:07:00,55.7,33.3,29.68,North,8,2.8,7.2,44,0.00,,,0.00,WSDL version 420,2013-03-07 23:07:00,
2013-03-07 15:12:00,55.4,34.5,29.68,NNW,348,3.8,6.3,46,0.00,,,0.00,WSDL version 420,2013-03-07 23:12:00,
2013-03-07 15:17:00,55.0,34.2,29.68,NNW,343,3.1,6.3,45,0.00,,,0.00,WSDL version 420,2013-03-07 23:17:00,
2013-03-07 15:22:00,54.9,34.5,29.68,North,3,3.5,5.6,46,0.00,,,0.00,WSDL version 420,2013-03-07 23:22:00,
2013-03-07 15:27:00,54.9,34.5,29.68,NE,48,2.7,4.7,46,0.00,,,0.00,WSDL version 420,2013-03-07 23:27:00,
2013-03-07 15:32:00,55.3,34.4,29.68,NE,48,2.5,4.7,45,0.00,,,0.00,WSDL version 420,2013-03-07 23:32:00,
2013-03-07 15:37:00,55.4,34.6,29.68,NNE,25,2.5,4.7,45,0.00,,,0.00,WSDL version 420,2013-03-07 23:37:00,
2013-03-07 15:42:00,55.4,34.4,29.68,NE,40,3.6,4.7,45,0.00,,,0.00,WSDL version 420,2013-03-07 23:42:00,
2013-03-07 15:47:00,55.4,34.3,29.68,East,85,3.1,5.4,44,0.00,,,0.00,WSDL version 420,2013-03-07 23:47:00,
2013-03-07 15:52:00,55.2,34.3,29.68,ENE,70,2.8,5.8,45,0.00,,,0.00,WSDL version 420,2013-03-07 23:52:00,
2013-03-07 15:57:00,55.0,33.8,29.68,ENE,78,4.3,6.5,44,0.00,,,0.00,WSDL version 420,2013-03-07 23:57:00,
2013-03-07 16:02:00,54.9,33.6,29.68,ENE,70,3.5,6.5,44,0.00,,,0.00,WSDL version 420,2013-03-08 00:02:00,
2013-03-07 16:07:00,54.9,33.9,29.68,East,80,3.3,6.0,45,0.00,,,0.00,WSDL version 420,2013-03-08 00:07:00,
2013-03-07 16:12:00,55.1,34.2,29.68,ENE,62,3.2,5.4,45,0.00,,,0.00,WSDL version 420,2013-03-08 00:12:00,
2013-03-07 16:17:00,55.4,34.3,29.68,ENE,58,2.5,5.4,45,0.00,,,0.00,WSDL version 420,2013-03-08 00:17:00,
2013-03-07 16:22:00,55.6,34.5,29.68,ENE,70,2.7,5.4,45,0.00,,,0.00,WSDL version 420,2013-03-08 00:22:00,
2013-03-07 16:27:00,55.5,34.0,29.68,NE,45,2.7,4.9,44,0.00,,,0.00,WSDL version 420,2013-03-08 00:27:00,
2013-03-07 16:32:00,55.4,34.0,29.65,NE,53,2.9,4.9,45,0.00,,,0.00,WSDL version 420,2013-03-08 00:32:00,
2013-03-07 16:37:00,55.4,34.4,29.65,NNE,31,2.3,5.4,45,0.00,,,0.00,WSDL version 420,2013-03-08 00:37:00,
2013-03-07 16:42:00,55.1,34.0,29.65,NNE,28,3.3,5.8,44,0.00,,,0.00,WSDL version 420,2013-03-08 00:42:00,
2013-03-07 16:47:00,54.8,33.4,29.65,NE,34,2.7,5.8,44,0.00,,,0.00,WSDL version 420,2013-03-08 00:47:00,
2013-03-07 16:52:00,54.6,32.8,29.65,NE,35,3.0,4.3,43,0.00,,,0.00,WSDL version 420,2013-03-08 00:52:00,
2013-03-07 16:57:00,54.5,32.5,29.65,NE,53,2.6,4.9,43,0.00,,,0.00,WSDL version 420,2013-03-08 00:57:00,
2013-03-07 17:02:00,54.5,33.1,29.65,NNE,31,2.8,6.3,44,0.00,,,0.00,WSDL version 420,2013-03-08 01:02:00,
2013-03-07 17:07:00,54.4,32.8,29.65,NNE,33,3.0,6.3,44,0.00,,,0.00,WSDL version 420,2013-03-08 01:07:00,
2013-03-07 17:12:00,54.2,32.4,29.65,NE,39,3.2,4.9,43,0.00,,,0.00,WSDL version 420,2013-03-08 01:12:00,
2013-03-07 17:17:00,54.1,32.6,29.65,NNE,30,3.0,4.9,44,0.00,,,0.00,WSDL version 420,2013-03-08 01:17:00,
2013-03-07 17:24:00,54.1,32.7,29.65,NE,45,2.6,4.7,44,0.00,,,0.00,WSDL version 420,2013-03-08 01:24:00,
2013-03-07 17:29:00,54.0,33.0,29.65,NNE,33,2.9,4.7,45,0.00,,,0.00,WSDL version 420,2013-03-08 01:29:00,
2013-03-07 17:34:00,54.0,32.8,29.65,NNE,28,3.3,5.8,45,0.00,,,0.00,WSDL version 420,2013-03-08 01:34:00,
2013-03-07 17:39:00,53.9,33.1,29.65,NE,40,2.6,5.8,45,0.00,,,0.00,WSDL version 420,2013-03-08 01:39:00,
2013-03-07 17:44:00,53.8,33.0,29.65,NE,42,2.3,3.8,45,0.00,,,0.00,WSDL version 420,2013-03-08 01:44:00,
2013-03-07 17:49:00,53.8,33.0,29.65,NE,53,1.7,3.8,45,0.00,,,0.00,WSDL version 420,2013-03-08 01:49:00,
2013-03-07 17:54:00,53.6,32.8,29.65,NE,45,1.8,5.4,45,0.00,,,0.00,WSDL version 420,2013-03-08 01:54:00,
2013-03-07 17:59:00,53.6,33.3,29.68,NE,35,1.7,5.4,46,0.00,,,0.00,WSDL version 420,2013-03-08 01:59:00,
2013-03-07 18:04:00,53.5,33.2,29.68,NE,45,2.7,4.0,46,0.00,,,0.00,WSDL version 420,2013-03-08 02:04:00,
2013-03-07 18:09:00,53.4,33.2,29.68,NE,39,2.4,3.6,46,0.00,,,0.00,WSDL version 420,2013-03-08 02:09:00,
2013-03-07 18:14:00,53.4,33.2,29.68,ENE,60,1.6,3.4,46,0.00,,,0.00,WSDL version 420,2013-03-08 02:14:00,
2013-03-07 18:19:00,53.4,33.2,29.65,ENE,77,1.5,3.1,46,0.00,,,0.00,WSDL version 420,2013-03-08 02:19:00,
2013-03-07 18:24:00,53.3,33.0,29.65,East,85,1.9,3.6,46,0.00,,,0.00,WSDL version 420,2013-03-08 02:24:00,
2013-03-07 18:29:00,53.2,33.0,29.65,NE,53,2.5,3.8,46,0.00,,,0.00,WSDL version 420,2013-03-08 02:29:00,
2013-03-07 18:34:00,53.2,33.0,29.65,NE,50,1.9,3.8,46,0.00,,,0.00,WSDL version 420,2013-03-08 02:34:00,
2013-03-07 18:39:00,53.2,33.1,29.65,East,83,1.3,3.8,47,0.00,,,0.00,WSDL version 420,2013-03-08 02:39:00,
2013-03-07 18:46:00,53.2,33.4,29.65,NE,34,1.7,3.4,46,0.00,,,0.00,WSDL version 420,2013-03-08 02:46:00,
2013-03-07 18:51:00,53.1,33.1,29.65,East,93,0.7,3.1,46,0.00,,,0.00,WSDL version 420,2013-03-08 02:51:00,
2013-03-07 18:56:00,53.1,33.4,29.65,SE,135,0.7,2.5,47,0.00,,,0.00,WSDL version 420,2013-03-08 02:56:00,
2013-03-07 19:01:00,52.9,33.3,29.68,NNW,345,0.5,2.5,47,0.00,,,0.00,WSDL version 420,2013-03-08 03:01:00,
2013-03-07 19:06:00,52.9,33.6,29.68,SSW,203,1.3,2.5,49,0.00,,,0.00,WSDL version 420,2013-03-08 03:06:00,
2013-03-07 19:11:00,52.8,34.9,29.68,SSW,205,1.3,2.9,51,0.00,,,0.00,WSDL version 420,2013-03-08 03:11:00,
2013-03-07 19:16:00,52.6,35.2,29.68,SW,218,1.8,3.1,52,0.00,,,0.00,WSDL version 420,2013-03-08 03:16:00,
2013-03-07 19:21:00,52.4,36.0,29.68,SSW,211,1.6,3.6,54,0.00,,,0.00,WSDL version 420,2013-03-08 03:21:00,
2013-03-07 19:26:00,52.2,36.6,29.68,SSW,203,1.1,3.6,56,0.00,,,0.00,WSDL version 420,2013-03-08 03:26:00,
2013-03-07 19:31:00,52.0,36.8,29.68,NW,312,1.8,2.7,56,0.00,,,0.00,WSDL version 420,2013-03-08 03:31:00,
2013-03-07 19:36:00,51.7,38.9,29.68,NW,304,5.1,8.5,64,0.00,,,0.00,WSDL version 420,2013-03-08 03:36:00,
2013-03-07 19:41:00,51.4,39.3,29.68,WNW,303,2.7,8.5,63,0.00,,,0.00,WSDL version 420,2013-03-08 03:41:00,
2013-03-07 19:46:00,51.3,39.3,29.68,NW,309,1.9,4.3,63,0.00,,,0.00,WSDL version 420,2013-03-08 03:46:00,
2013-03-07 19:51:00,51.0,40.0,29.68,WNW,290,3.6,5.8,67,0.00,,,0.00,WSDL version 420,2013-03-08 03:51:00,
2013-03-07 19:56:00,50.9,40.2,29.68,WNW,284,3.6,6.3,68,0.00,,,0.00,WSDL version 420,2013-03-08 03:56:00,
2013-03-07 20:01:00,50.7,40.9,29.68,WNW,290,3.8,6.3,69,0.00,,,0.00,WSDL version 420,2013-03-08 04:01:00,
2013-03-07 20:06:00,50.6,41.1,29.68,NW,304,2.6,6.0,70,0.00,,,0.00,WSDL version 420,2013-03-08 04:06:00,
2013-03-07 20:11:00,50.4,41.1,29.68,West,276,2.8,6.0,71,0.00,,,0.00,WSDL version 420,2013-03-08 04:11:00,
2013-03-07 20:16:00,50.2,41.0,29.68,WNW,295,2.7,4.9,70,0.00,,,0.00,WSDL version 420,2013-03-08 04:16:00,
2013-03-07 20:21:00,50.2,41.3,29.68,NW,321,2.6,4.7,72,0.00,,,0.00,WSDL version 420,2013-03-08 04:21:00,
2013-03-07 20:26:00,50.2,41.9,29.68,NNW,328,2.4,4.7,73,0.00,,,0.00,WSDL version 420,2013-03-08 04:26:00,
2013-03-07 20:31:00,50.2,41.9,29.68,WNW,295,2.8,4.3,73,0.00,,,0.00,WSDL version 420,2013-03-08 04:31:00,
2013-03-07 20:36:00,50.0,41.7,29.68,NW,325,1.8,3.6,73,0.00,,,0.00,WSDL version 420,2013-03-08 04:36:00,
2013-03-07 20:41:00,50.0,41.7,29.68,NNW,328,1.0,3.4,73,0.00,,,0.00,WSDL version 420,2013-03-08 04:41:00,
2013-03-07 20:46:00,50.0,41.9,29.68,NW,315,2.3,4.3,74,0.00,,,0.00,WSDL version 420,2013-03-08 04:46:00,
2013-03-07 20:51:00,50.0,42.1,29.68,NW,307,1.7,5.4,74,0.00,,,0.00,WSDL version 420,2013-03-08 04:51:00,
2013-03-07 20:56:00,50.0,42.3,29.68,NW,312,2.0,5.4,75,0.00,,,0.00,WSDL version 420,2013-03-08 04:56:00,
2013-03-07 21:01:00,50.0,42.1,29.68,NNW,340,2.8,4.3,74,0.00,,,0.00,WSDL version 420,2013-03-08 05:01:00,
2013-03-07 21:06:00,50.0,42.1,29.68,NNW,332,2.1,4.3,74,0.00,,,0.00,WSDL version 420,2013-03-08 05:06:00,
2013-03-07 21:11:00,50.0,42.0,29.68,SE,145,0.6,3.4,74,0.00,,,0.00,WSDL version 420,2013-03-08 05:11:00,
2013-03-07 21:16:00,49.9,42.0,29.68,North,6,0.9,4.0,74,0.00,,,0.00,WSDL version 420,2013-03-08 05:16:00,
2013-03-07 21:21:00,49.7,42.0,29.68,NNW,335,2.5,4.0,75,0.00,,,0.00,WSDL version 420,2013-03-08 05:21:00,
2013-03-07 21:27:00,49.5,42.2,29.68,NNW,340,2.7,4.3,76,0.00,,,0.00,WSDL version 420,2013-03-08 05:27:00,
2013-03-07 21:32:00,49.3,42.1,29.68,WNW,300,0.6,3.8,76,0.00,,,0.00,WSDL version 420,2013-03-08 05:32:00,
2013-03-07 21:37:00,49.0,42.1,29.68,NW,312,2.1,3.8,76,0.00,,,0.00,WSDL version 420,2013-03-08 05:37:00,
2013-03-07 21:42:00,48.9,42.0,29.68,WNW,300,2.2,4.0,78,0.00,,,0.00,WSDL version 420,2013-03-08 05:42:00,
2013-03-07 21:47:00,48.8,42.5,29.68,West,273,1.3,4.0,79,0.00,,,0.00,WSDL version 420,2013-03-08 05:47:00,
2013-03-07 21:52:00,48.7,42.6,29.68,WSW,248,0.0,2.7,80,0.00,,,0.00,WSDL version 420,2013-03-08 05:52:00,
2013-03-07 21:57:00,48.7,42.5,29.68,SSW,203,0.2,1.6,79,0.00,,,0.00,WSDL version 420,2013-03-08 05:57:00,
2013-03-07 22:02:00,48.7,42.7,29.68,SSW,203,0.0,1.6,80,0.00,,,0.00,WSDL version 420,2013-03-08 06:02:00,
2013-03-07 22:07:00,48.7,43.2,29.68,SSW,203,0.0,1.6,81,0.00,,,0.00,WSDL version 420,2013-03-08 06:07:00,
2013-03-07 22:12:00,48.7,43.1,29.68,SSW,203,0.0,1.1,80,0.00,,,0.00,WSDL version 420,2013-03-08 06:12:00,
2013-03-07 22:17:00,48.6,42.7,29.68,NW,310,1.9,3.1,80,0.00,,,0.00,WSDL version 420,2013-03-08 06:17:00,
2013-03-07 22:22:00,48.4,42.4,29.68,WNW,288,2.0,3.1,81,0.00,,,0.00,WSDL version 420,2013-03-08 06:22:00,
2013-03-07 22:27:00,48.4,42.8,29.68,NW,309,1.7,3.1,80,0.00,,,0.00,WSDL version 420,2013-03-08 06:27:00,
2013-03-07 22:32:00,48.4,42.6,29.68,WNW,295,1.9,3.6,81,0.00,,,0.00,WSDL version 420,2013-03-08 06:32:00,
2013-03-07 22:37:00,48.3,42.9,29.68,WNW,295,1.6,3.6,82,0.00,,,0.00,WSDL version 420,2013-03-08 06:37:00,
2013-03-07 22:42:00,48.4,43.2,29.68,WNW,293,0.8,3.1,82,0.00,,,0.00,WSDL version 420,2013-03-08 06:42:00,
2013-03-07 22:47:00,48.4,43.3,29.68,WNW,293,1.9,2.9,83,0.00,,,0.00,WSDL version 420,2013-03-08 06:47:00,
2013-03-07 22:52:00,48.4,43.6,29.68,SSW,210,0.2,2.9,83,0.00,,,0.00,WSDL version 420,2013-03-08 06:52:00,
2013-03-07 22:57:00,48.4,43.6,29.68,SW,225,0.8,2.2,83,0.00,,,0.00,WSDL version 420,2013-03-08 06:57:00,
2013-03-07 23:02:00,48.2,43.2,29.68,WNW,295,2.3,3.1,82,0.00,,,0.00,WSDL version 420,2013-03-08 07:02:00,
2013-03-07 23:07:00,48.2,43.3,29.68,WNW,293,1.3,3.1,83,0.00,,,0.00,WSDL version 420,2013-03-08 07:07:00,
2013-03-07 23:12:00,48.1,43.3,29.68,WNW,295,1.6,2.9,83,0.00,,,0.00,WSDL version 420,2013-03-08 07:12:00,
2013-03-07 23:17:00,48.0,43.2,29.68,WNW,288,1.2,2.9,83,0.00,,,0.00,WSDL version 420,2013-03-08 07:17:00,
2013-03-07 23:22:00,48.1,43.2,29.68,WNW,301,0.3,3.1,83,0.00,,,0.00,WSDL version 420,2013-03-08 07:22:00,
2013-03-07 23:27:00,48.0,43.2,29.68,WNW,300,2.0,3.1,83,0.00,,,0.00,WSDL version 420,2013-03-08 07:27:00,
2013-03-07 23:32:00,48.0,43.2,29.68,WNW,285,0.2,2.9,83,0.00,,,0.00,WSDL version 420,2013-03-08 07:32:00,
2013-03-07 23:37:00,48.0,43.2,29.68,WNW,293,2.1,3.1,83,0.00,,,0.00,WSDL version 420,2013-03-08 07:37:00,
2013-03-07 23:42:00,48.0,43.3,29.68,WNW,287,2.3,3.4,84,0.00,,,0.00,WSDL version 420,2013-03-08 07:42:00,
2013-03-07 23:47:00,48.0,43.3,29.68,WNW,293,1.7,3.4,84,0.00,,,0.00,WSDL version 420,2013-03-08 07:47:00,
2013-03-07 23:52:00,47.8,43.4,29.68,WNW,300,1.5,2.9,84,0.00,,,0.00,WSDL version 420,2013-03-08 07:52:00,
2013-03-07 23:57:00,47.8,43.4,29.68,WNW,293,0.8,2.2,84,0.00,,,0.00,WSDL version 420,2013-03-08 07:57:00,